Time;durP1;ratioP1;P1;durP2;ratioP2;P2;SDS_P1;SDS_P2;PMS_P1;PMS_P2;Temp;Humidity;BMP_temperature;BMP_pressure;BME280_temperature;BME280_humidity;BME280_pressure;Samples;Min_cycle;Max_cycle;Signal;HPM_P1;HPM_P2
2024/03/30 00:00:42;;;;;;;2.40;1.40;;;;;;;;;;5013533;28;20413;-87
2024/03/30 00:03:07;;;;;;;3.53;1.90;;;;;;;;;;5013499;28;20418;-89
2024/03/30 00:05:33;;;;;;;3.97;2.13;;;;;;;;;;5013534;28;20549;-88
2024/03/30 00:07:59;;;;;;;1.90;1.07;;;;;;;;;;5013727;28;20179;-88
2024/03/30 00:10:25;;;;;;;2.80;1.37;;;;;;;;;;5013576;28;20411;-88
2024/03/30 00:12:54;;;;;;;2.57;1.23;;;;;;;;;;5011880;28;20938;-86
2024/03/30 00:15:20;;;;;;;2.47;1.10;;;;;;;;;;5012114;28;21027;-86
2024/03/30 00:17:46;;;;;;;3.97;1.93;;;;;;;;;;5013448;28;20476;-88
2024/03/30 00:20:12;;;;;;;3.87;1.40;;;;;;;;;;5013422;28;20417;-88
2024/03/30 00:22:38;;;;;;;4.40;2.50;;;;;;;;;;5013573;28;20442;-83
2024/03/30 00:25:03;;;;;;;3.20;1.97;;;;;;;;;;5013424;28;20412;-86
2024/03/30 00:27:29;;;;;;;2.33;1.73;;;;;;;;;;5012750;28;20846;-88
2024/03/30 00:29:55;;;;;;;2.33;1.80;;;;;;;;;;5013326;28;20462;-86
2024/03/30 00:32:22;;;;;;;2.70;1.30;;;;;;;;;;5013328;28;20987;-86
2024/03/30 00:34:48;;;;;;;3.67;1.73;;;;;;;;;;5013163;28;20268;-85
2024/03/30 00:37:14;;;;;;;2.50;1.43;;;;;;;;;;5015601;28;20460;-88
2024/03/30 00:39:40;;;;;;;4.60;2.30;;;;;;;;;;5017055;28;20430;-88
2024/03/30 00:42:06;;;;;;;4.00;2.20;;;;;;;;;;5016770;28;20410;-89
2024/03/30 00:44:33;;;;;;;2.47;2.00;;;;;;;;;;5017138;28;20652;-88
2024/03/30 00:46:58;;;;;;;4.10;1.90;;;;;;;;;;5016947;28;20414;-85
2024/03/30 00:49:24;;;;;;;3.27;2.17;;;;;;;;;;5016766;28;20784;-84
2024/03/30 00:51:50;;;;;;;3.40;1.60;;;;;;;;;;5016742;28;20176;-83
2024/03/30 00:54:16;;;;;;;4.40;2.60;;;;;;;;;;5016677;28;20415;-82
2024/03/30 00:56:42;;;;;;;2.70;1.30;;;;;;;;;;5016357;28;20195;-82
2024/03/30 00:59:08;;;;;;;3.43;2.27;;;;;;;;;;5016517;28;20431;-83
2024/03/30 01:01:34;;;;;;;2.33;1.90;;;;;;;;;;5015305;28;20184;-82
2024/03/30 01:04:00;;;;;;;3.87;2.27;;;;;;;;;;5016497;28;20419;-81
2024/03/30 01:06:26;;;;;;;2.00;1.50;;;;;;;;;;5016465;28;20207;-83
2024/03/30 01:08:52;;;;;;;2.67;1.73;;;;;;;;;;5016407;28;20177;-83
2024/03/30 01:11:18;;;;;;;2.63;1.20;;;;;;;;;;5015983;28;20419;-82
2024/03/30 01:13:44;;;;;;;2.90;1.33;;;;;;;;;;5016169;28;20419;-85
2024/03/30 01:16:13;;;;;;;1.70;0.90;;;;;;;;;;5016948;28;20419;-85
2024/03/30 01:18:39;;;;;;;2.10;1.33;;;;;;;;;;5016620;28;20486;-85
2024/03/30 01:21:05;;;;;;;2.80;1.50;;;;;;;;;;5016162;28;20419;-84
2024/03/30 01:23:31;;;;;;;3.67;1.97;;;;;;;;;;5016153;28;20414;-83
2024/03/30 01:26:00;;;;;;;2.60;1.83;;;;;;;;;;5015726;28;20498;-79
2024/03/30 01:28:27;;;;;;;2.07;1.27;;;;;;;;;;5016006;28;20427;-86
2024/03/30 01:30:53;;;;;;;2.43;2.00;;;;;;;;;;5016090;28;20440;-84
2024/03/30 01:33:19;;;;;;;3.43;1.77;;;;;;;;;;5015932;28;20425;-78
2024/03/30 01:35:45;;;;;;;3.30;1.80;;;;;;;;;;5015803;28;20423;-78
2024/03/30 01:38:11;;;;;;;2.20;1.83;;;;;;;;;;5015802;28;20963;-79
2024/03/30 01:40:38;;;;;;;1.70;1.10;;;;;;;;;;5015496;28;20419;-78
2024/03/30 01:43:04;;;;;;;2.37;1.20;;;;;;;;;;5015899;28;20410;-78
2024/03/30 01:45:35;;;;;;;2.70;1.67;;;;;;;;;;5015795;28;20933;-79
2024/03/30 01:48:02;;;;;;;2.80;1.70;;;;;;;;;;5014903;28;20451;-79
2024/03/30 01:50:29;;;;;;;2.03;1.60;;;;;;;;;;5015670;28;20419;-79
2024/03/30 01:52:55;;;;;;;2.83;2.00;;;;;;;;;;5014331;28;20435;-79
2024/03/30 01:55:22;;;;;;;1.90;1.17;;;;;;;;;;5015205;28;20836;-79
2024/03/30 01:57:48;;;;;;;3.67;1.87;;;;;;;;;;5015482;28;20474;-79
2024/03/30 02:00:13;;;;;;;2.20;1.13;;;;;;;;;;5015469;28;20460;-79
2024/03/30 02:02:40;;;;;;;2.20;1.63;;;;;;;;;;5015549;28;20416;-79
2024/03/30 02:05:06;;;;;;;3.10;0.70;;;;;;;;;;5015403;28;20413;-83
2024/03/30 02:07:33;;;;;;;2.10;1.47;;;;;;;;;;5015334;28;20424;-81
2024/03/30 02:10:00;;;;;;;2.53;1.23;;;;;;;;;;5015311;28;20419;-79
2024/03/30 02:12:26;;;;;;;3.30;0.97;;;;;;;;;;5014888;28;20395;-78
2024/03/30 02:14:52;;;;;;;2.63;1.30;;;;;;;;;;5014968;28;20520;-78
2024/03/30 02:17:18;;;;;;;1.70;1.10;;;;;;;;;;5015130;28;20451;-80
2024/03/30 02:19:46;;;;;;;2.70;1.07;;;;;;;;;;5014941;28;20516;-84
2024/03/30 02:22:17;;;;;;;3.00;1.57;;;;;;;;;;5015088;28;20406;-83
2024/03/30 02:24:43;;;;;;;2.50;0.80;;;;;;;;;;5015107;28;20875;-78
2024/03/30 02:27:09;;;;;;;1.93;0.50;;;;;;;;;;5014616;28;20538;-82
2024/03/30 02:29:36;;;;;;;1.40;0.80;;;;;;;;;;5014823;28;20173;-78
2024/03/30 02:32:03;;;;;;;1.70;0.80;;;;;;;;;;5014886;28;20558;-78
2024/03/30 02:34:29;;;;;;;1.80;1.13;;;;;;;;;;5013518;28;20406;-78
2024/03/30 02:36:55;;;;;;;2.63;1.40;;;;;;;;;;5014642;28;20426;-82
2024/03/30 02:39:21;;;;;;;1.43;0.80;;;;;;;;;;5014609;28;20488;-78
2024/03/30 02:41:47;;;;;;;2.70;1.40;;;;;;;;;;5014274;28;20407;-77
2024/03/30 02:44:13;;;;;;;1.60;0.90;;;;;;;;;;5014629;28;20680;-78
2024/03/30 02:46:39;;;;;;;1.93;0.87;;;;;;;;;;5014539;28;20418;-78
2024/03/30 02:49:05;;;;;;;1.70;0.70;;;;;;;;;;5014590;28;20230;-78
2024/03/30 02:51:31;;;;;;;1.97;0.93;;;;;;;;;;5014579;28;20445;-78
2024/03/30 02:53:57;;;;;;;1.83;0.70;;;;;;;;;;5014438;28;20468;-80
2024/03/30 02:56:23;;;;;;;2.23;1.10;;;;;;;;;;5014081;28;20506;-78
2024/03/30 02:58:49;;;;;;;2.10;1.40;;;;;;;;;;5013379;28;20217;-77
2024/03/30 03:01:14;;;;;;;1.90;1.00;;;;;;;;;;5014107;28;20418;-78
2024/03/30 03:03:40;;;;;;;4.20;1.17;;;;;;;;;;5014311;28;20426;-77
2024/03/30 03:06:06;;;;;;;1.47;0.70;;;;;;;;;;5014100;28;20815;-78
2024/03/30 03:08:32;;;;;;;1.50;0.70;;;;;;;;;;5014251;28;20423;-79
2024/03/30 03:10:58;;;;;;;1.93;1.20;;;;;;;;;;5013836;28;20419;-77
2024/03/30 03:13:24;;;;;;;1.07;0.40;;;;;;;;;;5014041;28;20175;-78
2024/03/30 03:15:51;;;;;;;2.63;0.87;;;;;;;;;;5014126;28;20176;-78
2024/03/30 03:18:17;;;;;;;3.73;1.00;;;;;;;;;;5013922;28;20853;-81
2024/03/30 03:20:42;;;;;;;2.23;0.97;;;;;;;;;;5014023;28;20399;-78
2024/03/30 03:23:08;;;;;;;2.63;0.83;;;;;;;;;;5014015;28;20181;-78
2024/03/30 03:25:34;;;;;;;2.30;0.90;;;;;;;;;;5012271;28;20979;-78
2024/03/30 03:28:00;;;;;;;3.37;0.90;;;;;;;;;;5013821;28;20773;-78
2024/03/30 03:30:26;;;;;;;2.00;0.60;;;;;;;;;;5013770;28;20402;-78
2024/03/30 03:32:52;;;;;;;1.90;0.90;;;;;;;;;;5013872;28;20917;-78
2024/03/30 03:35:18;;;;;;;1.73;0.80;;;;;;;;;;5012511;28;20415;-80
2024/03/30 03:37:44;;;;;;;2.10;0.80;;;;;;;;;;5012941;28;20265;-78
2024/03/30 03:40:10;;;;;;;3.40;1.20;;;;;;;;;;5011784;28;20904;-79
2024/03/30 03:42:36;;;;;;;1.43;0.87;;;;;;;;;;5013148;28;20407;-79
2024/03/30 03:45:02;;;;;;;2.50;1.07;;;;;;;;;;5013228;28;20774;-79
2024/03/30 03:47:27;;;;;;;1.33;0.73;;;;;;;;;;5013229;28;20209;-82
2024/03/30 03:49:53;;;;;;;1.47;0.93;;;;;;;;;;5013064;28;20419;-79
2024/03/30 03:52:19;;;;;;;1.43;0.83;;;;;;;;;;5013143;28;20412;-79
2024/03/30 03:54:45;;;;;;;2.50;1.00;;;;;;;;;;5013457;28;20175;-78
2024/03/30 03:57:11;;;;;;;3.70;1.37;;;;;;;;;;5013023;28;20282;-84
2024/03/30 03:59:37;;;;;;;3.77;1.30;;;;;;;;;;5013559;28;20215;-86
2024/03/30 04:02:03;;;;;;;4.97;1.30;;;;;;;;;;5013435;28;20177;-83
2024/03/30 04:04:29;;;;;;;2.30;0.73;;;;;;;;;;5013521;28;20632;-79
2024/03/30 04:06:55;;;;;;;1.73;0.93;;;;;;;;;;5013381;28;20407;-78
2024/03/30 04:09:20;;;;;;;1.93;1.50;;;;;;;;;;5013262;28;20650;-78
2024/03/30 04:11:46;;;;;;;3.73;2.03;;;;;;;;;;5012522;28;20171;-78
2024/03/30 04:14:12;;;;;;;1.70;0.93;;;;;;;;;;5013116;28;20632;-78
2024/03/30 04:16:38;;;;;;;3.10;2.40;;;;;;;;;;5013340;28;20427;-89
2024/03/30 04:19:04;;;;;;;2.77;1.10;;;;;;;;;;5013233;28;20291;-79
2024/03/30 04:21:30;;;;;;;1.93;1.30;;;;;;;;;;5013251;28;20415;-78
2024/03/30 04:23:56;;;;;;;2.17;0.87;;;;;;;;;;5013256;28;20181;-78
2024/03/30 04:26:22;;;;;;;5.43;1.33;;;;;;;;;;5012742;28;20684;-78
2024/03/30 04:28:48;;;;;;;1.53;0.97;;;;;;;;;;5013182;28;20897;-78
2024/03/30 04:31:14;;;;;;;2.37;1.37;;;;;;;;;;5013161;28;20412;-85
2024/03/30 04:33:39;;;;;;;5.43;2.23;;;;;;;;;;5011896;28;20533;-84
2024/03/30 04:36:06;;;;;;;1.47;1.07;;;;;;;;;;5013131;28;20176;-77
2024/03/30 04:38:33;;;;;;;2.10;1.47;;;;;;;;;;5012960;28;20223;-77
2024/03/30 04:41:02;;;;;;;1.90;1.40;;;;;;;;;;5012670;28;20453;-77
2024/03/30 04:43:28;;;;;;;1.60;1.03;;;;;;;;;;5013140;28;20428;-78
2024/03/30 04:45:54;;;;;;;2.60;1.60;;;;;;;;;;5013000;28;20491;-78
2024/03/30 04:48:20;;;;;;;2.73;1.80;;;;;;;;;;5013032;28;20455;-78
2024/03/30 04:50:47;;;;;;;2.17;1.57;;;;;;;;;;5012977;28;20412;-78
2024/03/30 04:53:16;;;;;;;2.87;1.13;;;;;;;;;;5012887;28;20426;-78
2024/03/30 04:55:49;;;;;;;4.40;2.20;;;;;;;;;;5012583;28;20430;-78
2024/03/30 04:58:15;;;;;;;3.20;1.33;;;;;;;;;;5012792;28;21057;-78
2024/03/30 05:00:41;;;;;;;1.97;0.90;;;;;;;;;;5012933;28;20412;-78
2024/03/30 05:03:07;;;;;;;1.40;0.97;;;;;;;;;;5012826;28;20938;-79
2024/03/30 05:05:33;;;;;;;5.00;0.93;;;;;;;;;;5012906;28;20178;-78
2024/03/30 05:07:59;;;;;;;3.47;1.03;;;;;;;;;;5012855;28;20651;-77
2024/03/30 05:10:24;;;;;;;2.60;1.43;;;;;;;;;;5012503;28;20417;-78
2024/03/30 05:12:50;;;;;;;2.00;1.50;;;;;;;;;;5012924;28;20184;-80
2024/03/30 05:15:16;;;;;;;2.83;1.37;;;;;;;;;;5012616;28;20780;-77
2024/03/30 05:17:42;;;;;;;2.30;1.47;;;;;;;;;;5012702;28;20539;-78
2024/03/30 05:22:53;;;;;;;2.17;1.33;;;;;;;;;;5014068;28;20502;-79
2024/03/30 05:25:19;;;;;;;1.67;1.10;;;;;;;;;;5015877;28;20697;-83
2024/03/30 05:27:45;;;;;;;1.83;1.07;;;;;;;;;;5016130;28;20499;-78
2024/03/30 05:30:13;;;;;;;3.40;1.10;;;;;;;;;;5016099;28;20178;-78
2024/03/30 05:32:38;;;;;;;2.77;1.07;;;;;;;;;;5016092;28;20181;-78
2024/03/30 05:35:06;;;;;;;5.43;1.40;;;;;;;;;;5015981;28;20831;-83
2024/03/30 05:37:31;;;;;;;2.70;1.33;;;;;;;;;;5015916;28;20295;-78
2024/03/30 05:39:57;;;;;;;2.90;1.50;;;;;;;;;;5014265;28;20516;-78
2024/03/30 05:42:23;;;;;;;1.87;1.33;;;;;;;;;;5015901;28;20522;-78
2024/03/30 05:44:50;;;;;;;1.93;0.80;;;;;;;;;;5015836;28;20175;-79
2024/03/30 05:47:16;;;;;;;2.20;1.20;;;;;;;;;;5015739;28;20171;-78
2024/03/30 05:49:42;;;;;;;2.67;1.40;;;;;;;;;;5015611;28;20420;-77
2024/03/30 05:52:08;;;;;;;1.90;1.27;;;;;;;;;;5015647;28;20502;-78
2024/03/30 05:54:34;;;;;;;3.13;1.40;;;;;;;;;;5015277;28;20535;-77
2024/03/30 05:57:00;;;;;;;2.67;1.10;;;;;;;;;;5015461;28;20952;-78
2024/03/30 05:59:26;;;;;;;5.60;2.03;;;;;;;;;;5015535;28;20426;-78
2024/03/30 06:01:52;;;;;;;1.97;1.30;;;;;;;;;;5015463;28;20402;-78
2024/03/30 06:04:18;;;;;;;1.43;0.97;;;;;;;;;;5015465;28;20419;-78
2024/03/30 06:06:43;;;;;;;1.90;1.20;;;;;;;;;;5015184;28;20185;-78
2024/03/30 06:09:09;;;;;;;2.20;0.83;;;;;;;;;;5014975;28;20428;-79
2024/03/30 06:11:35;;;;;;;2.30;0.93;;;;;;;;;;5013291;28;20206;-79
2024/03/30 06:14:01;;;;;;;1.80;0.80;;;;;;;;;;5014742;28;20249;-79
2024/03/30 06:16:27;;;;;;;2.20;1.07;;;;;;;;;;5015190;28;20313;-78
2024/03/30 06:18:53;;;;;;;1.20;0.83;;;;;;;;;;5015041;28;20471;-79
2024/03/30 06:21:19;;;;;;;4.57;1.17;;;;;;;;;;5015047;28;20206;-78
2024/03/30 06:23:45;;;;;;;3.10;1.33;;;;;;;;;;5015017;28;20261;-78
2024/03/30 06:26:11;;;;;;;5.10;1.40;;;;;;;;;;5014656;28;20888;-78
2024/03/30 06:28:37;;;;;;;2.30;1.07;;;;;;;;;;5014988;28;20457;-79
2024/03/30 06:31:03;;;;;;;2.50;1.03;;;;;;;;;;5014949;28;20778;-80
2024/03/30 06:33:29;;;;;;;2.07;0.60;;;;;;;;;;5014536;28;20413;-78
2024/03/30 06:35:55;;;;;;;1.77;1.20;;;;;;;;;;5014842;28;20413;-78
2024/03/30 06:38:21;;;;;;;2.20;0.90;;;;;;;;;;5014745;28;20966;-78
2024/03/30 06:43:41;;;;;;;1.97;0.93;;;;;;;;;;5014697;28;20426;-78
2024/03/30 06:46:08;;;;;;;2.00;0.90;;;;;;;;;;5014690;28;20421;-79
2024/03/30 06:48:33;;;;;;;2.00;1.10;;;;;;;;;;5014650;28;20471;-78
2024/03/30 06:50:59;;;;;;;1.30;0.60;;;;;;;;;;5013180;28;20417;-78
2024/03/30 06:53:25;;;;;;;1.83;1.30;;;;;;;;;;5014355;28;20620;-79
2024/03/30 06:55:51;;;;;;;1.47;1.07;;;;;;;;;;5012756;28;20182;-78
2024/03/30 06:58:17;;;;;;;2.00;1.23;;;;;;;;;;5014303;28;20659;-78
2024/03/30 07:00:43;;;;;;;1.57;0.73;;;;;;;;;;5013051;28;20926;-79
2024/03/30 07:03:09;;;;;;;1.27;0.80;;;;;;;;;;5014350;28;20448;-78
2024/03/30 07:05:35;;;;;;;2.30;1.27;;;;;;;;;;5013017;28;20477;-77
2024/03/30 07:08:01;;;;;;;1.30;0.70;;;;;;;;;;5029435;28;20509;-78
2024/03/30 07:10:27;;;;;;;1.17;0.70;;;;;;;;;;5013963;28;20419;-79
2024/03/30 07:12:54;;;;;;;2.27;0.90;;;;;;;;;;5012946;28;20428;-79
2024/03/30 07:15:21;;;;;;;2.60;1.17;;;;;;;;;;5013988;28;20472;-87
2024/03/30 07:17:47;;;;;;;2.73;1.00;;;;;;;;;;5014067;28;20564;-78
2024/03/30 07:20:13;;;;;;;1.27;0.90;;;;;;;;;;5013997;28;20499;-78
2024/03/30 07:22:39;;;;;;;2.20;1.33;;;;;;;;;;5013921;28;20427;-78
2024/03/30 07:25:05;;;;;;;1.90;0.70;;;;;;;;;;5013622;28;20409;-78
2024/03/30 07:27:31;;;;;;;1.80;1.20;;;;;;;;;;5013752;28;20172;-79
2024/03/30 07:29:57;;;;;;;1.90;0.80;;;;;;;;;;5013908;28;20423;-79
2024/03/30 07:32:23;;;;;;;1.63;0.90;;;;;;;;;;5013835;28;20520;-79
2024/03/30 07:34:49;;;;;;;1.73;0.90;;;;;;;;;;5013789;28;20467;-79
2024/03/30 07:37:16;;;;;;;1.63;0.90;;;;;;;;;;5013619;28;20431;-78
2024/03/30 07:39:42;;;;;;;1.10;0.60;;;;;;;;;;5013444;28;20784;-79
2024/03/30 07:42:08;;;;;;;3.17;1.00;;;;;;;;;;5013560;28;20906;-79
2024/03/30 07:44:35;;;;;;;1.67;1.00;;;;;;;;;;5013347;28;20505;-78
2024/03/30 07:47:01;;;;;;;1.50;0.60;;;;;;;;;;5013202;28;20472;-78
2024/03/30 07:49:27;;;;;;;2.07;1.33;;;;;;;;;;5013519;28;20910;-79
2024/03/30 07:51:53;;;;;;;1.33;0.90;;;;;;;;;;5013455;28;20507;-79
2024/03/30 07:54:19;;;;;;;1.83;1.10;;;;;;;;;;5028394;28;20480;-79
2024/03/30 07:56:54;;;;;;;3.37;1.33;;;;;;;;;;5013369;28;20174;-78
2024/03/30 07:59:20;;;;;;;2.50;1.27;;;;;;;;;;5013248;28;20242;-79
2024/03/30 08:01:46;;;;;;;4.00;1.80;;;;;;;;;;5013044;28;20451;-79
2024/03/30 08:04:12;;;;;;;1.30;1.03;;;;;;;;;;5013124;28;20409;-79
2024/03/30 08:06:38;;;;;;;2.93;0.77;;;;;;;;;;5013387;28;20437;-79
2024/03/30 08:09:07;;;;;;;2.13;1.10;;;;;;;;;;5013336;28;20180;-79
2024/03/30 08:11:33;;;;;;;3.03;0.67;;;;;;;;;;5013233;28;20419;-79
2024/03/30 08:13:59;;;;;;;1.93;1.20;;;;;;;;;;5012976;28;20446;-79
2024/03/30 08:16:25;;;;;;;2.03;0.90;;;;;;;;;;5013155;28;20178;-79
2024/03/30 08:18:52;;;;;;;2.10;1.13;;;;;;;;;;5013102;28;20473;-79
2024/03/30 08:21:18;;;;;;;3.37;0.87;;;;;;;;;;5013148;28;20169;-78
2024/03/30 08:23:44;;;;;;;1.40;0.63;;;;;;;;;;5013224;28;20820;-80
2024/03/30 08:26:10;;;;;;;3.83;0.70;;;;;;;;;;5012639;28;20493;-83
2024/03/30 08:28:36;;;;;;;1.00;0.60;;;;;;;;;;5012987;28;20561;-80
2024/03/30 08:31:01;;;;;;;1.80;1.17;;;;;;;;;;5011406;28;20546;-80
2024/03/30 08:33:29;;;;;;;1.43;0.73;;;;;;;;;;5012587;28;20178;-83
2024/03/30 08:35:55;;;;;;;1.60;0.80;;;;;;;;;;5013236;28;20631;-82
2024/03/30 08:38:21;;;;;;;2.67;0.97;;;;;;;;;;5013014;28;20531;-79
2024/03/30 08:40:48;;;;;;;1.10;1.00;;;;;;;;;;5012724;28;20499;-78
2024/03/30 08:43:17;;;;;;;1.57;0.53;;;;;;;;;;5012401;28;20844;-79
2024/03/30 08:45:43;;;;;;;1.30;0.90;;;;;;;;;;5012860;28;20409;-79
2024/03/30 08:48:12;;;;;;;1.20;0.70;;;;;;;;;;5012973;28;20448;-78
2024/03/30 08:50:38;;;;;;;2.40;1.20;;;;;;;;;;5012413;28;20771;-78
2024/03/30 08:53:04;;;;;;;2.43;1.10;;;;;;;;;;5012814;28;20445;-77
2024/03/30 08:55:30;;;;;;;1.90;0.87;;;;;;;;;;5011352;28;20304;-77
2024/03/30 08:57:56;;;;;;;2.13;1.03;;;;;;;;;;5015775;28;20464;-77
2024/03/30 09:00:22;;;;;;;1.80;0.90;;;;;;;;;;5016563;28;20693;-78
2024/03/30 09:02:48;;;;;;;2.37;1.27;;;;;;;;;;5016498;28;20414;-80
2024/03/30 09:05:14;;;;;;;2.20;1.43;;;;;;;;;;5016467;28;20422;-79
2024/03/30 09:07:40;;;;;;;1.63;0.90;;;;;;;;;;5016384;28;20416;-79
2024/03/30 09:10:06;;;;;;;2.23;0.93;;;;;;;;;;5015897;28;20180;-81
2024/03/30 09:12:32;;;;;;;2.50;0.97;;;;;;;;;;5016419;28;20421;-79
2024/03/30 09:14:58;;;;;;;3.03;1.20;;;;;;;;;;5016220;28;20547;-79
2024/03/30 09:17:24;;;;;;;2.30;1.83;;;;;;;;;;5016295;28;20783;-79
2024/03/30 09:19:50;;;;;;;1.50;1.03;;;;;;;;;;5016404;28;20271;-85
2024/03/30 09:22:16;;;;;;;3.40;2.10;;;;;;;;;;5016151;28;20654;-83
2024/03/30 09:24:43;;;;;;;2.30;1.10;;;;;;;;;;5015779;28;20420;-85
2024/03/30 09:27:09;;;;;;;2.10;1.23;;;;;;;;;;5016066;28;20305;-80
2024/03/30 09:29:35;;;;;;;2.83;1.23;;;;;;;;;;5016127;28;20421;-80
2024/03/30 09:32:00;;;;;;;2.30;1.17;;;;;;;;;;5016106;28;20414;-77
2024/03/30 09:34:27;;;;;;;1.63;0.67;;;;;;;;;;5015898;28;20181;-77
2024/03/30 09:36:52;;;;;;;1.90;0.60;;;;;;;;;;5014635;28;20204;-80
2024/03/30 09:39:18;;;;;;;1.90;1.67;;;;;;;;;;5015436;28;20982;-78
2024/03/30 09:41:50;;;;;;;3.10;1.60;;;;;;;;;;5015819;28;20184;-78
2024/03/30 09:44:16;;;;;;;2.37;2.17;;;;;;;;;;5015848;28;20186;-78
2024/03/30 09:46:44;;;;;;;2.50;1.20;;;;;;;;;;5015767;28;20501;-78
2024/03/30 09:49:10;;;;;;;1.73;1.47;;;;;;;;;;5014446;28;20771;-78
2024/03/30 09:51:36;;;;;;;4.33;1.70;;;;;;;;;;5015631;28;20414;-80
2024/03/30 09:54:02;;;;;;;3.07;1.43;;;;;;;;;;5013957;28;20410;-79
2024/03/30 09:56:32;;;;;;;1.57;1.20;;;;;;;;;;5015595;28;20516;-78
2024/03/30 09:59:02;;;;;;;2.27;1.20;;;;;;;;;;5015251;28;20482;-78
2024/03/30 10:01:28;;;;;;;2.47;1.57;;;;;;;;;;5015267;28;20910;-77
2024/03/30 10:03:54;;;;;;;2.80;1.57;;;;;;;;;;5015364;28;20417;-77
2024/03/30 10:06:27;;;;;;;1.97;0.70;;;;;;;;;;5015353;28;20178;-76
2024/03/30 10:08:55;;;;;;;1.87;0.93;;;;;;;;;;5014318;28;20182;-77
2024/03/30 10:11:21;;;;;;;2.30;1.23;;;;;;;;;;5015314;28;20509;-78
2024/03/30 10:13:54;;;;;;;2.23;1.40;;;;;;;;;;5015076;28;20471;-79
2024/03/30 10:16:20;;;;;;;2.57;1.10;;;;;;;;;;5015244;28;20465;-79
2024/03/30 10:18:49;;;;;;;4.03;1.57;;;;;;;;;;5015009;28;20501;-79
2024/03/30 10:21:15;;;;;;;2.27;1.40;;;;;;;;;;5014983;28;20914;-81
2024/03/30 10:23:42;;;;;;;2.70;1.63;;;;;;;;;;5015074;28;20517;-80
2024/03/30 10:26:17;;;;;;;2.03;1.63;;;;;;;;;;5014735;28;20497;-78
2024/03/30 10:28:43;;;;;;;3.03;1.77;;;;;;;;;;5014990;28;20867;-77
2024/03/30 10:31:09;;;;;;;7.20;1.60;;;;;;;;;;5013664;28;20426;-77
2024/03/30 10:33:35;;;;;;;3.23;1.63;;;;;;;;;;5014802;28;20509;-77
2024/03/30 10:36:01;;;;;;;2.60;1.17;;;;;;;;;;5014706;28;20421;-77
2024/03/30 10:38:28;;;;;;;2.07;1.40;;;;;;;;;;5014636;28;20808;-77
2024/03/30 10:40:55;;;;;;;2.70;0.47;;;;;;;;;;5014350;28;20410;-76
2024/03/30 10:43:21;;;;;;;2.27;0.80;;;;;;;;;;5014661;28;20907;-77
2024/03/30 10:45:47;;;;;;;1.20;0.70;;;;;;;;;;5014644;28;20410;-77
2024/03/30 10:48:13;;;;;;;3.80;1.20;;;;;;;;;;5014403;28;20886;-77
2024/03/30 10:50:39;;;;;;;1.93;1.13;;;;;;;;;;5013143;28;20410;-77
2024/03/30 10:53:08;;;;;;;1.33;0.70;;;;;;;;;;5014408;28;20425;-77
2024/03/30 10:55:38;;;;;;;2.37;0.93;;;;;;;;;;5014087;28;20402;-77
2024/03/30 10:58:04;;;;;;;1.73;1.03;;;;;;;;;;5014235;28;20473;-77
2024/03/30 11:00:30;;;;;;;2.53;1.17;;;;;;;;;;5014398;28;20764;-78
2024/03/30 11:02:58;;;;;;;5.73;1.70;;;;;;;;;;5014312;28;20888;-78
2024/03/30 11:05:25;;;;;;;2.40;1.60;;;;;;;;;;5014347;28;20880;-77
2024/03/30 11:07:51;;;;;;;3.33;1.60;;;;;;;;;;5014278;28;20413;-77
2024/03/30 11:10:17;;;;;;;6.33;1.60;;;;;;;;;;5013920;28;20958;-77
2024/03/30 11:12:44;;;;;;;4.30;1.30;;;;;;;;;;5013907;28;20449;-79
2024/03/30 11:15:10;;;;;;;4.83;0.90;;;;;;;;;;5013844;28;20309;-78
2024/03/30 11:17:47;;;;;;;3.83;1.47;;;;;;;;;;5014043;28;20553;-78
2024/03/30 11:20:22;;;;;;;4.07;1.30;;;;;;;;;;5011779;28;20440;-79
2024/03/30 11:22:54;;;;;;;3.10;1.10;;;;;;;;;;5014002;28;20409;-77
2024/03/30 11:25:21;;;;;;;2.97;1.10;;;;;;;;;;5013716;28;20433;-78
2024/03/30 11:27:51;;;;;;;4.53;1.03;;;;;;;;;;5013895;28;20974;-78
2024/03/30 11:30:36;;;;;;;3.87;1.30;;;;;;;;;;5013889;28;20830;-77
2024/03/30 11:33:20;;;;;;;5.40;1.30;;;;;;;;;;5013687;28;20413;-78
2024/03/30 11:35:56;;;;;;;6.53;1.63;;;;;;;;;;5013703;28;20471;-79
2024/03/30 11:38:23;;;;;;;12.37;2.13;;;;;;;;;;5013637;28;20823;-78
2024/03/30 11:41:00;;;;;;;6.43;2.40;;;;;;;;;;5013414;28;20408;-78
2024/03/30 11:43:39;;;;;;;7.40;3.10;;;;;;;;;;5013678;28;20411;-77
2024/03/30 11:46:05;;;;;;;4.97;1.70;;;;;;;;;;5013608;28;20910;-78
2024/03/30 11:48:31;;;;;;;9.37;2.90;;;;;;;;;;5013567;28;20452;-77
2024/03/30 11:50:57;;;;;;;7.07;2.80;;;;;;;;;;5013448;28;20414;-83
2024/03/30 11:53:24;;;;;;;9.40;1.57;;;;;;;;;;5012138;28;20827;-79
2024/03/30 11:55:51;;;;;;;6.57;1.83;;;;;;;;;;5013238;28;20229;-83
2024/03/30 11:58:20;;;;;;;6.77;1.13;;;;;;;;;;5011891;28;20900;-83
2024/03/30 12:00:51;;;;;;;7.70;2.50;;;;;;;;;;5013327;28;20410;-81
2024/03/30 12:03:17;;;;;;;9.47;2.87;;;;;;;;;;5013483;28;20476;-79
2024/03/30 12:05:47;;;;;;;9.97;3.03;;;;;;;;;;5013389;28;20775;-80
2024/03/30 12:08:14;;;;;;;10.63;2.40;;;;;;;;;;5013246;28;20431;-79
2024/03/30 12:10:47;;;;;;;12.33;3.43;;;;;;;;;;5013017;28;20987;-79
2024/03/30 12:13:13;;;;;;;7.60;2.63;;;;;;;;;;5013249;28;20456;-78
2024/03/30 12:15:39;;;;;;;7.43;2.20;;;;;;;;;;5013254;28;20486;-80
2024/03/30 12:18:05;;;;;;;6.00;2.23;;;;;;;;;;5013093;28;20507;-78
2024/03/30 12:20:31;;;;;;;8.70;3.00;;;;;;;;;;5013078;28;20178;-77
2024/03/30 12:22:57;;;;;;;11.93;2.50;;;;;;;;;;5013181;28;20764;-81
2024/03/30 12:25:25;;;;;;;7.30;1.83;;;;;;;;;;5012846;28;20457;-79
2024/03/30 12:27:51;;;;;;;8.27;2.03;;;;;;;;;;5013161;28;20259;-79
2024/03/30 12:30:17;;;;;;;9.70;2.27;;;;;;;;;;5013107;28;20444;-78
2024/03/30 12:32:43;;;;;;;7.90;3.63;;;;;;;;;;5015963;28;20174;-79
2024/03/30 12:35:09;;;;;;;9.43;3.97;;;;;;;;;;5017026;28;20430;-79
2024/03/30 12:37:35;;;;;;;9.40;3.00;;;;;;;;;;5017021;28;20202;-79
2024/03/30 12:40:01;;;;;;;14.20;2.77;;;;;;;;;;5016732;28;20424;-78
2024/03/30 12:42:27;;;;;;;9.83;2.50;;;;;;;;;;5017086;28;20179;-79
2024/03/30 12:44:53;;;;;;;13.37;5.00;;;;;;;;;;5016868;28;20517;-78
2024/03/30 12:47:19;;;;;;;17.80;6.80;;;;;;;;;;5016770;28;20425;-77
2024/03/30 12:49:45;;;;;;;24.07;11.30;;;;;;;;;;5016371;28;20423;-85
2024/03/30 12:52:11;;;;;;;15.37;6.77;;;;;;;;;;5016490;28;20319;-82
2024/03/30 12:54:37;;;;;;;16.67;8.13;;;;;;;;;;5016404;28;20510;-78
2024/03/30 12:57:03;;;;;;;38.43;17.80;;;;;;;;;;5016598;28;20411;-81
2024/03/30 12:59:30;;;;;;;32.07;18.20;;;;;;;;;;5016424;28;20473;-78
2024/03/30 13:01:56;;;;;;;37.07;18.17;;;;;;;;;;5016351;28;20460;-77
2024/03/30 13:04:22;;;;;;;38.27;19.33;;;;;;;;;;5016370;28;20507;-78
2024/03/30 13:06:47;;;;;;;18.43;11.27;;;;;;;;;;5016439;28;20412;-78
2024/03/30 13:09:18;;;;;;;13.40;8.07;;;;;;;;;;5015974;28;20182;-78
2024/03/30 13:11:45;;;;;;;10.27;5.30;;;;;;;;;;5016414;28;20892;-82
2024/03/30 13:14:11;;;;;;;25.77;13.77;;;;;;;;;;5014366;28;20828;-78
2024/03/30 13:16:36;;;;;;;19.33;10.50;;;;;;;;;;5016389;28;20421;-78
2024/03/30 13:19:02;;;;;;;25.23;13.57;;;;;;;;;;5016207;28;20215;-78
2024/03/30 13:21:28;;;;;;;39.20;21.07;;;;;;;;;;5016130;28;20402;-79
2024/03/30 13:23:55;;;;;;;28.20;18.63;;;;;;;;;;5015978;28;20172;-81
2024/03/30 13:26:20;;;;;;;34.83;20.77;;;;;;;;;;5016181;28;20591;-77
2024/03/30 13:28:46;;;;;;;51.93;33.00;;;;;;;;;;5015990;28;20450;-82
2024/03/30 13:31:12;;;;;;;66.40;44.80;;;;;;;;;;5014770;28;20189;-81
2024/03/30 13:33:38;;;;;;;62.60;41.03;;;;;;;;;;5015992;28;20472;-81
2024/03/30 13:36:06;;;;;;;40.00;27.90;;;;;;;;;;5015265;28;20187;-78
2024/03/30 13:38:32;;;;;;;39.77;25.13;;;;;;;;;;5014738;28;20632;-81
2024/03/30 13:40:58;;;;;;;18.93;11.90;;;;;;;;;;5016301;28;20510;-83
2024/03/30 13:43:24;;;;;;;16.70;9.40;;;;;;;;;;5014812;28;20184;-83
2024/03/30 13:45:54;;;;;;;23.70;13.03;;;;;;;;;;5015792;28;20186;-80
2024/03/30 13:48:20;;;;;;;25.87;18.10;;;;;;;;;;5014916;28;20184;-88
2024/03/30 13:50:46;;;;;;;28.20;17.03;;;;;;;;;;5016551;28;20428;-85
2024/03/30 13:53:12;;;;;;;28.97;22.57;;;;;;;;;;5014561;28;20184;-85
2024/03/30 13:55:37;;;;;;;24.67;17.43;;;;;;;;;;5016299;28;20627;-78
2024/03/30 13:58:04;;;;;;;46.80;34.00;;;;;;;;;;5016204;28;20210;-88
2024/03/30 14:00:29;;;;;;;55.70;41.53;;;;;;;;;;5018343;28;20412;-87
2024/03/30 14:02:55;;;;;;;64.07;44.30;;;;;;;;;;5016162;28;20421;-86
2024/03/30 14:05:21;;;;;;;65.43;46.83;;;;;;;;;;5015455;28;20512;-84
2024/03/30 14:07:48;;;;;;;53.33;34.67;;;;;;;;;;5014130;28;20426;-84
2024/03/30 14:10:14;;;;;;;44.17;26.83;;;;;;;;;;5014922;28;20437;-80
2024/03/30 14:12:40;;;;;;;35.50;24.87;;;;;;;;;;5015379;28;20422;-83
2024/03/30 14:15:06;;;;;;;25.10;14.83;;;;;;;;;;5015034;28;20265;-83
2024/03/30 14:17:33;;;;;;;23.53;14.67;;;;;;;;;;5014325;28;20214;-81
2024/03/30 14:19:59;;;;;;;19.43;12.60;;;;;;;;;;5015203;28;20558;-84
2024/03/30 14:22:26;;;;;;;22.63;13.60;;;;;;;;;;5015167;28;20411;-84
2024/03/30 14:24:52;;;;;;;19.83;10.97;;;;;;;;;;5014917;28;20424;-80
2024/03/30 14:27:18;;;;;;;15.90;8.80;;;;;;;;;;5008749;28;20418;-79
2024/03/30 14:29:45;;;;;;;15.23;7.30;;;;;;;;;;5003455;28;20410;-77
2024/03/30 14:32:11;;;;;;;15.50;7.67;;;;;;;;;;4998134;28;20191;-85
2024/03/30 14:34:37;;;;;;;17.17;8.17;;;;;;;;;;4996024;28;20412;-82
2024/03/30 14:37:03;;;;;;;13.03;4.20;;;;;;;;;;4995790;28;20924;-87
2024/03/30 14:39:29;;;;;;;15.53;6.33;;;;;;;;;;4995217;28;20304;-84
2024/03/30 14:41:55;;;;;;;9.60;3.93;;;;;;;;;;4995502;28;20441;-87